Time;durP1;ratioP1;P1;durP2;ratioP2;P2;SDS_P1;SDS_P2;PMS_P1;PMS_P2;Temp;Humidity;BMP_temperature;BMP_pressure;BME280_temperature;BME280_humidity;BME280_pressure;Samples;Min_cycle;Max_cycle;Signal;HPM_P1;HPM_P2
2022/04/06 00:01:51;;;;;;;3.53;3.20;;;10.90;1.00;;;;;;5067501;28;20847;-81
2022/04/06 00:04:20;;;;;;;3.83;3.27;;;10.90;1.00;;;;;;5064938;28;21122;-79
2022/04/06 00:06:48;;;;;;;3.40;2.93;;;10.90;1.00;;;;;;5061308;28;20464;-77
2022/04/06 00:09:21;;;;;;;2.90;2.60;;;10.80;1.00;;;;;;5062948;28;20500;-78
2022/04/06 00:11:49;;;;;;;3.70;3.00;;;11.10;1.00;;;;;;5059565;28;20482;-77
2022/04/06 00:14:18;;;;;;;3.80;3.50;;;10.80;24.60;;;;;;5062768;28;20465;-82
2022/04/06 00:16:46;;;;;;;3.43;2.80;;;10.70;71.40;;;;;;5058213;28;20461;-77
2022/04/06 00:19:15;;;;;;;2.97;2.77;;;10.60;99.90;;;;;;5059250;28;20453;-78
2022/04/06 00:21:43;;;;;;;3.60;3.30;;;10.80;99.90;;;;;;5064749;28;20473;-78
2022/04/06 00:24:12;;;;;;;3.67;3.37;;;10.90;92.80;;;;;;5063916;28;21088;-80
2022/04/06 00:26:41;;;;;;;4.70;3.33;;;10.90;28.50;;;;;;5063561;28;20466;-77
2022/04/06 00:29:10;;;;;;;3.53;3.23;;;10.90;39.40;;;;;;5062803;28;20480;-78
2022/04/06 00:31:38;;;;;;;3.47;2.93;;;11.00;29.70;;;;;;5068976;28;20519;-80
2022/04/06 00:34:06;;;;;;;3.30;2.77;;;11.00;1.00;;;;;;5061658;28;20512;-78
2022/04/06 00:36:34;;;;;;;3.53;2.63;;;11.10;1.00;;;;;;5063976;28;20470;-79
2022/04/06 00:39:03;;;;;;;3.30;2.50;;;11.00;1.30;;;;;;5066263;28;20472;-80
2022/04/06 00:41:31;;;;;;;2.80;2.60;;;11.10;1.00;;;;;;5067618;28;20474;-79
2022/04/06 00:44:15;;;;;;;2.93;2.73;;;10.90;40.10;;;;;;5066925;28;20462;-76
2022/04/06 00:46:44;;;;;;;3.10;2.40;;;10.90;35.80;;;;;;5065294;28;20460;-80
2022/04/06 00:49:14;;;;;;;2.63;2.43;;;10.90;86.80;;;;;;5063900;28;20472;-78
2022/04/06 00:51:46;;;;;;;4.40;3.13;;;10.90;57.40;;;;;;5066454;28;20485;-79
2022/04/06 00:54:15;;;;;;;3.43;3.13;;;10.80;99.90;;;;;;5066167;28;20453;-80
2022/04/06 00:56:46;;;;;;;2.97;2.77;;;10.90;99.90;;;;;;5063204;28;20461;-79
2022/04/06 00:59:17;;;;;;;2.70;2.50;;;10.90;99.90;;;;;;5065066;28;20527;-78
2022/04/06 01:01:46;;;;;;;4.97;3.77;;;10.50;99.90;;;;;;5067703;28;20488;-77
2022/04/06 01:04:15;;;;;;;3.10;2.70;;;10.60;99.90;;;;;;5065119;28;20449;-80
2022/04/06 01:06:43;;;;;;;3.17;2.83;;;10.60;99.90;;;;;;5068827;28;20590;-78
2022/04/06 01:09:11;;;;;;;2.97;2.60;;;10.70;99.90;;;;;;5068518;28;20477;-79
2022/04/06 01:11:40;;;;;;;3.43;2.67;;;10.60;99.90;;;;;;5064503;28;20466;-77
2022/04/06 01:14:09;;;;;;;8.83;3.33;;;10.70;99.90;;;;;;5066925;28;20485;-79
2022/04/06 01:16:39;;;;;;;3.17;2.87;;;10.70;99.90;;;;;;5064793;28;20473;-79
2022/04/06 01:19:07;;;;;;;6.57;3.40;;;10.70;99.90;;;;;;5061919;28;20463;-78
2022/04/06 01:21:40;;;;;;;4.07;3.40;;;10.80;99.90;;;;;;5057166;28;21106;-76
2022/04/06 01:24:09;;;;;;;2.70;2.50;;;10.80;99.90;;;;;;5064793;28;20459;-76
2022/04/06 01:26:37;;;;;;;3.43;3.13;;;10.60;99.90;;;;;;5061176;28;20457;-81
2022/04/06 01:29:05;;;;;;;3.57;3.27;;;10.60;99.90;;;;;;5059299;28;20466;-78
2022/04/06 01:31:34;;;;;;;4.63;2.70;;;10.60;99.90;;;;;;5063469;28;20539;-77
2022/04/06 01:34:02;;;;;;;2.67;2.47;;;10.50;99.90;;;;;;5061085;28;20452;-77
2022/04/06 01:36:30;;;;;;;4.57;2.50;;;10.70;99.90;;;;;;5062303;28;20456;-76
2022/04/06 01:38:58;;;;;;;3.43;2.70;;;10.70;99.90;;;;;;5060151;28;20463;-79
2022/04/06 01:41:32;;;;;;;4.43;3.00;;;10.80;99.90;;;;;;5064264;28;20482;-80
2022/04/06 01:44:01;;;;;;;3.30;3.00;;;10.80;99.70;;;;;;5061455;28;20953;-77
2022/04/06 01:46:29;;;;;;;2.87;2.60;;;10.70;99.90;;;;;;5063552;28;21047;-80
2022/04/06 01:54:28;;;;;;;5.73;3.50;;;10.60;99.90;;;;;;5059183;28;20458;-79
2022/04/06 01:56:58;;;;;;;2.80;2.60;;;10.60;99.90;;;;;;5061403;28;20447;-77
2022/04/06 01:59:26;;;;;;;5.13;4.73;;;10.60;99.90;;;;;;5066441;28;20978;-78
2022/04/06 02:01:55;;;;;;;3.73;2.73;;;10.60;99.90;;;;;;5060079;28;20463;-79
2022/04/06 02:04:23;;;;;;;3.80;3.40;;;10.70;99.90;;;;;;5062880;28;20534;-80
2022/04/06 02:06:52;;;;;;;2.90;2.70;;;10.70;99.90;;;;;;5065188;28;20502;-75
2022/04/06 02:09:20;;;;;;;3.80;3.50;;;10.60;99.90;;;;;;5066235;28;20450;-76
2022/04/06 02:11:48;;;;;;;3.13;2.83;;;10.70;99.90;;;;;;5061243;28;20478;-77
2022/04/06 02:14:18;;;;;;;4.03;2.90;;;10.80;99.90;;;;;;5060519;28;20447;-78
2022/04/06 02:16:46;;;;;;;4.20;3.70;;;10.80;99.90;;;;;;5064825;28;20515;-78
2022/04/06 02:19:15;;;;;;;3.47;3.20;;;10.80;99.90;;;;;;5063407;28;20457;-78
2022/04/06 02:21:43;;;;;;;4.60;4.20;;;10.80;99.90;;;;;;5065257;28;22660;-77
2022/04/06 02:24:11;;;;;;;3.77;3.50;;;10.90;99.90;;;;;;5065957;28;20455;-78
2022/04/06 02:26:40;;;;;;;3.13;2.83;;;10.90;99.90;;;;;;5065281;28;20462;-78
2022/04/06 02:29:08;;;;;;;4.67;3.80;;;10.90;99.90;;;;;;5064983;28;20464;-79
2022/04/06 02:31:37;;;;;;;3.10;2.80;;;10.80;99.90;;;;;;5065768;28;20492;-77
2022/04/06 02:34:06;;;;;;;3.70;3.20;;;10.90;99.90;;;;;;5066144;28;20443;-78
2022/04/06 02:36:34;;;;;;;4.97;4.10;;;10.90;99.90;;;;;;5067429;28;21045;-76
2022/04/06 02:39:02;;;;;;;4.20;3.90;;;10.90;99.90;;;;;;5070278;28;20461;-78
2022/04/06 02:41:30;;;;;;;4.87;3.80;;;11.20;99.90;;;;;;5069810;28;20489;-78
2022/04/06 02:43:58;;;;;;;4.40;3.10;;;11.00;99.90;;;;;;5066456;28;20523;-77
2022/04/06 02:46:27;;;;;;;3.37;3.07;;;10.90;99.90;;;;;;5069388;28;20986;-76
2022/04/06 02:48:56;;;;;;;3.33;3.03;;;10.90;99.90;;;;;;5073072;28;20451;-79
2022/04/06 02:51:24;;;;;;;2.90;2.70;;;10.90;99.90;;;;;;5072666;28;20481;-78
2022/04/06 02:53:52;;;;;;;4.33;3.70;;;10.90;99.90;;;;;;5064674;28;20495;-78
2022/04/06 02:56:21;;;;;;;3.90;3.40;;;11.00;99.90;;;;;;5065492;28;20469;-78
2022/04/06 02:58:49;;;;;;;3.07;2.77;;;11.00;98.20;;;;;;5063517;28;20472;-80
2022/04/06 03:01:17;;;;;;;4.00;3.70;;;11.10;47.10;;;;;;5065807;28;20496;-77
2022/04/06 03:03:45;;;;;;;3.70;3.40;;;11.30;27.20;;;;;;5067754;28;20469;-78
2022/04/06 03:06:15;;;;;;;4.80;3.40;;;11.00;52.20;;;;;;5066802;28;20470;-79
2022/04/06 03:08:43;;;;;;;4.13;3.83;;;11.10;11.30;;;;;;5066981;28;20463;-78
2022/04/06 03:11:11;;;;;;;4.17;3.10;;;11.10;1.00;;;;;;5067747;28;20483;-77
2022/04/06 03:13:40;;;;;;;5.07;4.43;;;11.00;27.50;;;;;;5068680;28;20461;-79
2022/04/06 03:16:08;;;;;;;5.40;4.90;;;10.90;91.60;;;;;;5067173;28;20462;-79
2022/04/06 03:18:37;;;;;;;3.50;3.20;;;10.90;99.90;;;;;;5067780;28;21657;-78
2022/04/06 03:21:05;;;;;;;4.43;4.03;;;11.00;17.70;;;;;;5066606;28;20445;-77
2022/04/06 03:23:34;;;;;;;4.20;3.80;;;11.00;34.10;;;;;;5064511;28;20477;-79
2022/04/06 03:26:03;;;;;;;4.27;3.23;;;11.10;1.00;;;;;;5065975;28;20458;-79
2022/04/06 03:28:31;;;;;;;6.57;4.17;;;11.10;1.00;;;;;;5067118;28;20443;-81
2022/04/06 03:30:59;;;;;;;5.03;3.80;;;11.10;1.00;;;;;;5062996;28;21082;-78
2022/04/06 03:33:27;;;;;;;3.20;3.00;;;11.00;31.40;;;;;;5063225;28;20462;-80
2022/04/06 03:35:56;;;;;;;3.73;3.43;;;10.90;99.90;;;;;;5059538;28;20462;-79
2022/04/06 03:38:24;;;;;;;3.97;3.53;;;10.90;99.90;;;;;;5064229;28;20449;-79
2022/04/06 03:40:56;;;;;;;3.60;3.30;;;10.80;99.90;;;;;;5062317;28;20875;-78
2022/04/06 03:43:24;;;;;;;3.33;3.00;;;10.80;99.90;;;;;;5064028;28;20448;-80
2022/04/06 03:45:53;;;;;;;3.73;3.40;;;10.90;99.90;;;;;;5062964;28;20448;-78
2022/04/06 03:48:22;;;;;;;3.10;2.87;;;10.90;99.90;;;;;;5065497;28;20455;-78
2022/04/06 03:50:51;;;;;;;2.67;2.47;;;10.80;99.90;;;;;;5064806;28;20474;-79
2022/04/06 03:53:19;;;;;;;3.50;2.80;;;10.80;99.90;;;;;;5060302;28;20470;-78
2022/04/06 03:55:48;;;;;;;4.40;2.90;;;10.80;99.90;;;;;;5060402;28;20461;-78
2022/04/06 03:58:17;;;;;;;3.40;3.10;;;10.80;99.90;;;;;;5060167;28;20477;-80
2022/04/06 04:00:46;;;;;;;3.03;2.80;;;10.60;1.00;;;;;;5059142;28;20828;-79
2022/04/06 04:03:15;;;;;;;5.80;3.20;;;10.70;1.00;;;;;;5057167;28;21007;-82
2022/04/06 04:05:43;;;;;;;3.57;3.23;;;10.70;1.00;;;;;;5059299;28;20450;-79
2022/04/06 04:08:11;;;;;;;3.63;2.60;;;10.70;1.00;;;;;;5060849;28;20448;-77
2022/04/06 04:10:39;;;;;;;5.17;3.33;;;10.90;99.90;;;;;;5058933;28;20511;-79
2022/04/06 04:13:07;;;;;;;4.30;2.80;;;10.90;99.90;;;;;;5060495;28;20892;-76
2022/04/06 04:15:37;;;;;;;3.60;3.30;;;11.10;99.90;;;;;;5061513;28;20494;-81
2022/04/06 04:18:05;;;;;;;3.60;2.70;;;10.90;99.90;;;;;;5062761;28;20448;-81
2022/04/06 04:20:34;;;;;;;4.77;4.37;;;11.00;99.90;;;;;;5059995;28;20448;-76
2022/04/06 04:23:02;;;;;;;3.10;2.77;;;11.00;99.90;;;;;;5062821;28;20547;-82
2022/04/06 04:25:30;;;;;;;2.90;2.70;;;11.00;99.90;;;;;;5056661;28;20483;-79
2022/04/06 04:27:58;;;;;;;4.40;3.37;;;11.00;99.90;;;;;;5061347;28;20457;-79
2022/04/06 04:30:26;;;;;;;3.80;3.50;;;11.00;99.90;;;;;;5064900;28;20531;-79
2022/04/06 04:32:56;;;;;;;5.00;2.83;;;10.90;99.90;;;;;;5061247;28;20539;-77
2022/04/06 04:35:24;;;;;;;3.17;2.87;;;10.90;99.90;;;;;;5063857;28;20453;-76
2022/04/06 04:37:52;;;;;;;6.90;3.80;;;10.90;99.90;;;;;;5057110;28;20470;-77
2022/04/06 04:40:21;;;;;;;3.57;3.23;;;11.00;99.90;;;;;;5056931;28;20455;-79
2022/04/06 04:42:50;;;;;;;4.00;2.93;;;11.30;99.90;;;;;;5060518;28;21067;-79
2022/04/06 04:45:18;;;;;;;3.63;3.30;;;11.20;99.90;;;;;;5057667;28;20450;-79
2022/04/06 04:47:46;;;;;;;2.93;2.70;;;11.00;99.90;;;;;;5061414;28;20510;-80
2022/04/06 04:50:19;;;;;;;6.10;5.03;;;11.00;99.90;;;;;;5066153;28;20443;-79
2022/04/06 04:52:47;;;;;;;3.40;3.10;;;10.90;99.90;;;;;;5061028;28;20522;-80
2022/04/06 04:55:16;;;;;;;4.23;3.40;;;10.90;99.90;;;;;;5061595;28;20465;-79
2022/04/06 04:57:44;;;;;;;3.97;3.23;;;10.70;1.00;;;;;;5064847;28;20464;-80
2022/04/06 05:00:13;;;;;;;3.60;3.30;;;10.80;99.90;;;;;;5067016;28;20477;-77
2022/04/06 05:02:41;;;;;;;3.40;3.20;;;10.80;99.90;;;;;;5062284;28;20479;-79
2022/04/06 05:05:11;;;;;;;3.60;3.30;;;10.90;99.90;;;;;;5061010;28;20451;-77
2022/04/06 05:07:41;;;;;;;3.73;2.80;;;10.90;99.90;;;;;;5058546;28;20466;-79
2022/04/06 05:10:10;;;;;;;3.30;3.00;;;10.90;99.90;;;;;;5062053;28;20442;-78
2022/04/06 05:12:39;;;;;;;3.97;2.47;;;11.00;99.90;;;;;;5061733;28;21000;-79
2022/04/06 05:15:09;;;;;;;3.57;3.27;;;11.00;99.90;;;;;;5059073;28;20964;-79
2022/04/06 05:17:37;;;;;;;3.00;2.77;;;11.00;99.90;;;;;;5058423;28;20457;-79
2022/04/06 05:20:07;;;;;;;3.90;3.30;;;10.80;99.90;;;;;;5056447;28;20570;-78
2022/04/06 05:22:35;;;;;;;2.83;2.60;;;10.70;99.90;;;;;;5061626;28;20473;-80
2022/04/06 05:25:07;;;;;;;5.50;3.30;;;10.90;99.90;;;;;;5059009;28;20854;-80
2022/04/06 05:27:45;;;;;;;5.03;3.10;;;10.90;99.90;;;;;;5062902;28;20462;-79
2022/04/06 05:30:14;;;;;;;3.47;3.17;;;10.80;99.90;;;;;;5061167;28;22816;-79
2022/04/06 05:32:43;;;;;;;3.37;3.07;;;10.90;99.90;;;;;;5064705;28;20487;-78
2022/04/06 05:35:13;;;;;;;5.13;3.50;;;10.90;99.90;;;;;;5065342;28;20461;-78
2022/04/06 05:37:42;;;;;;;3.10;2.37;;;11.10;99.90;;;;;;5066141;28;20508;-79
2022/04/06 05:40:15;;;;;;;3.60;3.30;;;10.90;99.90;;;;;;5060467;28;20466;-80
2022/04/06 05:42:44;;;;;;;4.00;3.47;;;10.90;99.90;;;;;;5063665;28;20474;-78
2022/04/06 05:45:12;;;;;;;3.70;3.40;;;10.80;99.90;;;;;;5066927;28;20457;-79
2022/04/06 05:47:42;;;;;;;3.65;3.20;;;10.90;99.90;;;;;;5065357;28;20442;-77
2022/04/06 05:50:11;;;;;;;5.20;3.90;;;10.90;99.90;;;;;;5062200;28;20188;-80
2022/04/06 05:52:40;;;;;;;4.63;3.10;;;10.80;99.90;;;;;;5062330;28;20478;-79
2022/04/06 05:55:09;;;;;;;3.63;3.03;;;10.70;1.00;;;;;;5058521;28;20447;-77
2022/04/06 05:57:39;;;;;;;5.43;3.80;;;10.80;99.90;;;;;;5067093;28;21200;-81
2022/04/06 06:00:09;;;;;;;5.00;3.63;;;10.80;99.90;;;;;;5070028;28;20440;-79
2022/04/06 06:02:37;;;;;;;4.00;3.70;;;10.90;99.90;;;;;;5064523;28;20471;-80
2022/04/06 06:05:07;;;;;;;3.93;3.33;;;10.80;1.00;;;;;;5068225;28;20461;-79
2022/04/06 06:07:35;;;;;;;6.13;4.20;;;10.60;1.00;;;;;;5067020;28;20459;-78
2022/04/06 06:10:04;;;;;;;5.13;3.80;;;10.60;1.00;;;;;;5063677;28;20736;-79
2022/04/06 06:12:32;;;;;;;5.10;3.70;;;10.60;2.00;;;;;;5066663;28;20548;-79
2022/04/06 06:15:02;;;;;;;3.70;3.30;;;10.70;1.00;;;;;;5067945;28;20467;-83
2022/04/06 06:17:30;;;;;;;4.60;3.97;;;10.70;1.00;;;;;;5065817;28;20452;-80
2022/04/06 06:19:58;;;;;;;4.10;3.33;;;10.90;99.90;;;;;;5064484;28;20452;-79
2022/04/06 06:22:26;;;;;;;4.13;3.63;;;11.00;99.90;;;;;;5067802;28;20496;-79
2022/04/06 06:24:55;;;;;;;4.57;3.90;;;10.90;99.90;;;;;;5064334;28;21195;-81
2022/04/06 06:27:24;;;;;;;4.23;3.83;;;10.80;1.00;;;;;;5061876;28;20469;-80
2022/04/06 06:29:52;;;;;;;4.33;3.93;;;10.70;1.00;;;;;;5066448;28;20442;-80
2022/04/06 06:32:23;;;;;;;3.73;3.43;;;10.60;99.90;;;;;;5067023;28;20501;-79
2022/04/06 06:34:51;;;;;;;3.97;3.57;;;10.60;99.90;;;;;;5064579;28;20458;-79
2022/04/06 06:37:19;;;;;;;3.03;2.83;;;10.80;1.00;;;;;;5068705;28;20456;-79
2022/04/06 06:39:47;;;;;;;3.63;3.30;;;10.90;1.00;;;;;;5065635;28;20452;-80
2022/04/06 06:42:16;;;;;;;4.07;3.30;;;10.90;1.00;;;;;;5067225;28;20438;-78
2022/04/06 06:44:46;;;;;;;2.83;2.60;;;10.90;99.90;;;;;;5066355;28;20200;-79
2022/04/06 06:47:14;;;;;;;2.57;1.90;;;10.60;29.10;;;;;;5065550;28;20464;-81
2022/04/06 06:49:46;;;;;;;4.13;3.33;;;10.60;1.00;;;;;;5060420;28;21156;-80
2022/04/06 06:52:15;;;;;;;2.90;2.70;;;10.60;38.30;;;;;;5063240;28;20486;-80
2022/04/06 06:54:43;;;;;;;2.20;2.00;;;10.60;43.90;;;;;;5063742;28;20458;-80
2022/04/06 06:57:11;;;;;;;2.37;2.17;;;10.60;1.00;;;;;;5068080;28;20466;-79
2022/04/06 06:59:41;;;;;;;3.20;2.70;;;10.60;50.00;;;;;;5063264;28;20461;-79
2022/04/06 07:02:10;;;;;;;3.77;2.73;;;10.60;1.00;;;;;;5063423;28;20475;-79
2022/04/06 07:04:38;;;;;;;2.83;2.63;;;10.70;1.00;;;;;;5062299;28;20446;-79
2022/04/06 07:07:08;;;;;;;4.50;3.10;;;10.90;1.00;;;;;;5065021;28;20457;-79
2022/04/06 07:09:36;;;;;;;3.00;2.70;;;10.80;1.00;;;;;;5057998;28;20456;-80
2022/04/06 07:12:05;;;;;;;2.57;2.40;;;10.70;99.90;;;;;;5063969;28;20473;-80
2022/04/06 07:14:33;;;;;;;3.17;2.70;;;10.70;62.70;;;;;;5063353;28;20451;-80
2022/04/06 07:17:01;;;;;;;2.97;2.03;;;10.80;47.50;;;;;;5067932;28;21165;-80
2022/04/06 07:19:29;;;;;;;2.57;2.37;;;10.80;1.00;;;;;;5063576;28;20912;-80
2022/04/06 07:21:58;;;;;;;3.00;2.70;;;10.80;1.00;;;;;;5065111;28;20858;-80
2022/04/06 07:24:27;;;;;;;2.07;1.67;;;10.90;1.00;;;;;;5065979;28;20451;-79
2022/04/06 07:26:56;;;;;;;1.63;1.53;;;11.00;99.90;;;;;;5067059;28;20463;-78
2022/04/06 07:29:24;;;;;;;3.53;2.43;;;10.90;1.00;;;;;;5068223;28;20450;-78
2022/04/06 07:31:52;;;;;;;3.93;2.53;;;10.90;1.00;;;;;;5067076;28;20493;-78
2022/04/06 07:34:21;;;;;;;2.53;1.93;;;10.80;1.00;;;;;;5064164;28;20522;-80
2022/04/06 07:36:49;;;;;;;3.10;2.00;;;10.90;1.00;;;;;;5067303;28;20458;-80
2022/04/06 07:39:17;;;;;;;2.07;1.43;;;10.90;99.90;;;;;;5064379;28;20539;-79
2022/04/06 07:41:46;;;;;;;1.60;1.50;;;10.80;1.00;;;;;;5068198;28;20473;-79
2022/04/06 07:44:15;;;;;;;2.23;1.50;;;10.90;99.90;;;;;;5067244;28;20449;-79
2022/04/06 07:46:43;;;;;;;1.50;1.40;;;11.10;99.90;;;;;;5064828;28;20455;-80
2022/04/06 07:49:11;;;;;;;1.80;1.57;;;11.30;99.90;;;;;;5061027;28;20542;-80
2022/04/06 07:51:40;;;;;;;2.93;2.00;;;11.40;99.90;;;;;;5063519;28;20899;-79
2022/04/06 07:54:08;;;;;;;1.70;1.50;;;11.50;39.00;;;;;;5068498;28;20482;-79
2022/04/06 07:56:39;;;;;;;1.90;1.70;;;11.50;1.00;;;;;;5067848;28;20465;-80
2022/04/06 07:59:09;;;;;;;2.10;1.43;;;11.30;10.10;;;;;;5064562;28;20855;-80
2022/04/06 08:01:37;;;;;;;3.60;1.30;;;11.50;1.00;;;;;;5067858;28;20481;-80
2022/04/06 08:04:05;;;;;;;1.50;1.40;;;11.70;1.00;;;;;;5068426;28;20442;-80
2022/04/06 08:06:33;;;;;;;1.77;1.67;;;11.80;1.00;;;;;;5065633;28;20437;-80
2022/04/06 08:09:04;;;;;;;2.90;1.87;;;11.90;1.00;;;;;;5067240;28;20463;-80
2022/04/06 08:11:33;;;;;;;1.30;1.20;;;11.80;1.00;;;;;;5068329;28;20478;-78
2022/04/06 08:14:01;;;;;;;1.77;1.40;;;11.80;1.00;;;;;;5068593;28;20462;-79
2022/04/06 08:16:30;;;;;;;5.77;1.77;;;11.90;1.00;;;;;;5059038;28;20472;-80
2022/04/06 08:18:59;;;;;;;1.20;1.10;;;11.70;1.00;;;;;;5061408;28;20455;-80
2022/04/06 08:21:28;;;;;;;1.00;1.00;;;11.60;1.00;;;;;;5067156;28;21057;-81
2022/04/06 08:23:56;;;;;;;1.17;1.07;;;11.70;1.00;;;;;;5067739;28;20810;-79
2022/04/06 08:26:24;;;;;;;1.10;1.00;;;11.70;1.00;;;;;;5067511;28;20466;-79
2022/04/06 08:28:54;;;;;;;2.00;0.97;;;11.80;1.00;;;;;;5065110;28;20442;-79
2022/04/06 08:31:22;;;;;;;1.50;0.70;;;11.90;1.00;;;;;;5068483;28;20455;-79
2022/04/06 08:33:52;;;;;;;0.70;0.70;;;11.90;1.00;;;;;;5061826;28;20466;-79
2022/04/06 08:36:20;;;;;;;0.60;0.60;;;11.70;1.00;;;;;;5067194;28;20477;-79
2022/04/06 08:38:49;;;;;;;3.17;0.60;;;11.70;1.00;;;;;;5065226;28;20460;-80
2022/04/06 08:41:17;;;;;;;0.60;0.60;;;11.50;1.00;;;;;;5061554;28;20451;-79
2022/04/06 08:43:46;;;;;;;2.73;0.60;;;11.70;1.00;;;;;;5057448;28;20447;-80
2022/04/06 08:46:18;;;;;;;0.77;0.70;;;11.70;1.00;;;;;;5065132;28;20445;-80
2022/04/06 08:48:49;;;;;;;0.70;0.70;;;11.60;1.00;;;;;;5064120;28;20455;-79
2022/04/06 08:51:20;;;;;;;0.73;0.73;;;11.70;1.00;;;;;;5061273;28;20440;-78
2022/04/06 08:53:49;;;;;;;0.73;0.63;;;11.90;99.90;;;;;;5061574;28;20830;-79
2022/04/06 08:56:17;;;;;;;0.73;0.70;;;12.00;99.90;;;;;;5069754;28;20460;-79
2022/04/06 08:58:45;;;;;;;0.57;0.57;;;12.00;99.90;;;;;;5065000;28;20532;-80
2022/04/06 09:01:13;;;;;;;0.80;0.80;;;12.20;99.90;;;;;;5068087;28;21433;-79
2022/04/06 09:03:42;;;;;;;2.13;0.90;;;12.30;99.90;;;;;;5062587;28;20533;-80
2022/04/06 09:06:12;;;;;;;0.60;0.60;;;12.40;99.90;;;;;;5063430;28;20486;-81
2022/04/06 09:08:44;;;;;;;0.70;0.60;;;12.40;99.90;;;;;;5063381;28;20934;-81
2022/04/06 09:11:15;;;;;;;0.60;0.60;;;12.50;99.90;;;;;;5062791;28;20455;-80
2022/04/06 09:13:45;;;;;;;0.80;0.50;;;12.50;99.90;;;;;;5063833;28;20476;-80
2022/04/06 09:16:16;;;;;;;0.50;0.50;;;12.40;99.90;;;;;;5064911;28;20458;-79
2022/04/06 09:18:46;;;;;;;0.70;0.70;;;12.40;99.90;;;;;;5065244;28;20465;-79
2022/04/06 09:21:16;;;;;;;0.67;0.60;;;12.40;99.90;;;;;;5066942;28;20453;-78
2022/04/06 09:23:48;;;;;;;0.60;0.50;;;12.10;99.90;;;;;;5065836;28;20530;-81
2022/04/06 09:26:21;;;;;;;0.80;0.70;;;12.20;99.90;;;;;;5066015;28;20532;-81
2022/04/06 09:28:51;;;;;;;0.60;0.60;;;12.30;99.90;;;;;;5068162;28;21004;-80
2022/04/06 09:31:20;;;;;;;1.77;0.60;;;12.20;99.90;;;;;;5066189;28;21035;-81
2022/04/06 09:33:57;;;;;;;1.87;0.90;;;12.30;99.90;;;;;;5065646;28;20556;-81
2022/04/06 09:36:28;;;;;;;1.27;0.50;;;12.50;99.90;;;;;;5066384;28;20447;-81
2022/04/06 09:38:59;;;;;;;0.50;0.50;;;12.60;99.90;;;;;;5066221;28;20451;-79
2022/04/06 09:41:28;;;;;;;0.70;0.53;;;12.60;99.90;;;;;;5066882;28;20470;-79
2022/04/06 09:44:08;;;;;;;0.60;0.60;;;12.60;99.90;;;;;;5065246;28;20501;-79
2022/04/06 09:49:29;;;;;;;0.60;0.60;;;12.70;99.90;;;;;;5065985;28;20462;-82
2022/04/06 09:51:57;;;;;;;0.40;0.40;;;13.00;99.90;;;;;;5065753;28;20597;-81
2022/04/06 09:54:31;;;;;;;0.90;0.50;;;13.10;99.90;;;;;;5062156;28;20472;-80
2022/04/06 09:57:00;;;;;;;0.97;0.70;;;12.90;99.90;;;;;;5069643;28;20887;-81
2022/04/06 09:59:29;;;;;;;0.70;0.63;;;13.00;99.90;;;;;;5068549;28;20450;-81
2022/04/06 10:02:00;;;;;;;0.70;0.60;;;13.20;99.90;;;;;;5065656;28;21340;-81
2022/04/06 10:04:31;;;;;;;0.90;0.50;;;13.30;99.90;;;;;;5061310;28;20451;-80
2022/04/06 10:07:00;;;;;;;0.50;0.50;;;13.30;99.90;;;;;;5063796;28;20452;-82
2022/04/06 10:09:30;;;;;;;1.43;1.33;;;13.20;99.90;;;;;;5063089;28;20448;-81
2022/04/06 10:11:58;;;;;;;0.50;0.50;;;13.10;99.90;;;;;;5064421;28;20485;-79
2022/04/06 10:14:29;;;;;;;0.70;0.60;;;13.00;99.90;;;;;;5057618;28;20463;-81
2022/04/06 10:16:58;;;;;;;0.60;0.50;;;12.80;99.90;;;;;;5061620;28;20469;-80
2022/04/06 10:19:36;;;;;;;3.33;0.50;;;12.60;99.90;;;;;;5065382;28;20497;-81
2022/04/06 10:22:11;;;;;;;1.30;0.57;;;12.90;99.90;;;;;;5068724;28;20469;-81
2022/04/06 10:24:54;;;;;;;0.43;0.43;;;13.20;99.90;;;;;;5063486;28;20458;-81
2022/04/06 10:27:28;;;;;;;0.50;0.47;;;13.30;99.90;;;;;;5070038;28;20438;-83
2022/04/06 10:30:10;;;;;;;1.00;0.60;;;13.40;99.90;;;;;;5066003;28;20801;-81
2022/04/06 10:32:40;;;;;;;0.90;0.80;;;13.70;99.90;;;;;;5063726;28;20569;-80
2022/04/06 10:35:23;;;;;;;0.60;0.60;;;13.60;99.90;;;;;;5063042;28;20471;-80
2022/04/06 10:37:54;;;;;;;0.67;0.60;;;13.80;99.90;;;;;;5067954;28;20528;-81
2022/04/06 10:40:25;;;;;;;0.50;0.50;;;13.90;99.90;;;;;;5065757;28;20443;-82
2022/04/06 10:42:53;;;;;;;2.03;0.60;;;13.90;99.90;;;;;;5067873;28;20879;-80
2022/04/06 10:45:37;;;;;;;0.60;0.60;;;13.70;99.90;;;;;;5071699;28;20444;-80
2022/04/06 10:48:16;;;;;;;4.93;0.50;;;13.70;99.90;;;;;;5070174;28;20470;-81
2022/04/06 10:50:45;;;;;;;0.60;0.60;;;13.90;99.90;;;;;;5069431;28;20476;-81
2022/04/06 10:53:31;;;;;;;0.50;0.50;;;14.00;99.90;;;;;;5066814;28;20472;-81
2022/04/06 10:56:06;;;;;;;1.03;0.63;;;14.30;99.90;;;;;;5071771;28;20529;-79
2022/04/06 10:59:09;;;;;;;0.57;0.50;;;14.20;99.90;;;;;;5072568;28;20445;-81
2022/04/06 11:01:45;;;;;;;0.50;0.50;;;14.40;99.90;;;;;;5063764;28;20541;-80
2022/04/06 11:04:18;;;;;;;0.63;0.63;;;14.50;99.90;;;;;;5067183;28;20468;-80
2022/04/06 11:06:53;;;;;;;0.90;0.53;;;14.50;99.90;;;;;;5065076;28;21298;-82
2022/04/06 11:12:15;;;;;;;0.93;0.60;;;14.40;99.90;;;;;;5063511;28;20830;-81
2022/04/06 11:14:45;;;;;;;0.77;0.50;;;14.50;99.90;;;;;;5066525;28;20472;-84
2022/04/06 11:17:37;;;;;;;0.50;0.47;;;14.60;99.90;;;;;;5067233;28;20462;-82
2022/04/06 11:20:08;;;;;;;0.67;0.60;;;14.80;99.90;;;;;;5064826;28;20520;-81
2022/04/06 11:22:38;;;;;;;0.60;0.60;;;14.70;99.90;;;;;;5066501;28;20481;-81
2022/04/06 11:25:09;;;;;;;0.77;0.77;;;14.80;99.90;;;;;;5064321;28;20474;-81
2022/04/06 11:27:40;;;;;;;0.60;0.60;;;15.10;99.90;;;;;;5065457;28;20852;-82
2022/04/06 11:30:12;;;;;;;1.10;0.53;;;15.20;99.90;;;;;;5065516;28;20511;-80
2022/04/06 11:32:43;;;;;;;0.50;0.50;;;15.30;99.90;;;;;;5065285;28;20838;-81
2022/04/06 11:35:12;;;;;;;0.60;0.50;;;15.30;99.90;;;;;;5061980;28;20549;-81
2022/04/06 11:37:42;;;;;;;0.60;0.60;;;15.20;99.90;;;;;;5067680;28;20445;-80
2022/04/06 11:40:11;;;;;;;0.83;0.50;;;15.00;99.90;;;;;;5066541;28;20442;-80
2022/04/06 11:42:41;;;;;;;2.03;0.50;;;15.00;99.90;;;;;;5064027;28;20496;-82
2022/04/06 11:45:10;;;;;;;0.50;0.50;;;14.90;99.90;;;;;;5064669;28;20457;-79
2022/04/06 11:47:39;;;;;;;0.47;0.47;;;15.00;99.90;;;;;;5067390;28;20460;-81
2022/04/06 11:50:12;;;;;;;0.40;0.40;;;15.00;99.90;;;;;;5067005;28;20489;-81
2022/04/06 11:52:42;;;;;;;0.50;0.50;;;14.90;99.90;;;;;;5066989;28;21030;-80
2022/04/06 11:55:10;;;;;;;0.50;0.50;;;14.70;99.90;;;;;;5063556;28;20482;-81
2022/04/06 11:57:42;;;;;;;0.50;0.40;;;14.90;99.90;;;;;;5068008;28;20861;-80
2022/04/06 12:00:13;;;;;;;0.43;0.43;;;15.00;99.90;;;;;;5068137;28;20446;-80
2022/04/06 12:02:51;;;;;;;0.60;0.40;;;15.20;99.90;;;;;;5069009;28;20469;-81
2022/04/06 12:05:20;;;;;;;1.07;0.40;;;15.30;99.90;;;;;;5065029;28;20499;-82
2022/04/06 12:08:12;;;;;;;1.73;0.40;;;15.40;99.90;;;;;;5069426;28;20443;-82
2022/04/06 12:10:49;;;;;;;0.40;0.40;;;15.40;99.90;;;;;;5069119;28;20453;-82
2022/04/06 12:13:19;;;;;;;1.07;0.50;;;15.50;99.90;;;;;;5069001;28;20480;-80
2022/04/06 12:15:49;;;;;;;0.60;0.60;;;15.70;99.90;;;;;;5070256;28;21080;-79
2022/04/06 12:18:19;;;;;;;0.40;0.40;;;15.70;99.90;;;;;;5067698;28;20458;-79
2022/04/06 12:20:48;;;;;;;0.93;0.50;;;15.80;99.90;;;;;;5056634;28;21131;-76
2022/04/06 12:23:17;;;;;;;0.90;0.50;;;15.90;99.90;;;;;;5058272;28;20872;-76
2022/04/06 12:25:47;;;;;;;0.40;0.40;;;16.10;99.90;;;;;;5057345;28;20450;-75
2022/04/06 12:28:19;;;;;;;0.50;0.50;;;16.20;99.90;;;;;;5059349;28;20464;-75
2022/04/06 12:30:55;;;;;;;0.60;0.60;;;16.20;99.90;;;;;;5057056;28;20454;-75
2022/04/06 12:33:38;;;;;;;0.47;0.47;;;16.30;99.90;;;;;;5054365;28;20466;-75
2022/04/06 12:36:18;;;;;;;0.73;0.50;;;16.40;99.90;;;;;;5049562;28;20475;-75
2022/04/06 12:39:01;;;;;;;1.03;0.60;;;16.40;99.90;;;;;;5052656;28;20443;-75
2022/04/06 12:41:31;;;;;;;0.60;0.60;;;16.40;99.90;;;;;;5060060;28;20462;-75
2022/04/06 12:44:03;;;;;;;0.77;0.60;;;16.30;99.90;;;;;;5056427;28;20562;-76
2022/04/06 12:46:42;;;;;;;0.40;0.40;;;16.40;99.90;;;;;;5055963;28;20450;-77
2022/04/06 12:49:32;;;;;;;0.40;0.40;;;16.50;99.90;;;;;;5057114;28;20462;-76
2022/04/06 12:52:09;;;;;;;0.60;0.60;;;16.60;99.90;;;;;;5058480;28;20981;-76
2022/04/06 12:54:39;;;;;;;1.27;0.60;;;16.60;99.90;;;;;;5057684;28;20541;-75
2022/04/06 12:57:10;;;;;;;0.50;0.50;;;16.60;99.90;;;;;;5060810;28;20478;-76
2022/04/06 12:59:42;;;;;;;0.40;0.40;;;16.70;99.90;;;;;;5060608;28;20477;-75
2022/04/06 13:02:21;;;;;;;0.50;0.50;;;16.70;99.90;;;;;;5053832;28;20498;-75
2022/04/06 13:04:50;;;;;;;1.90;0.70;;;16.60;99.90;;;;;;5062451;28;20939;-81
2022/04/06 13:07:19;;;;;;;0.60;0.50;;;16.50;99.90;;;;;;5066121;28;20512;-79
2022/04/06 13:10:12;;;;;;;0.50;0.50;;;16.40;99.90;;;;;;5064932;28;20439;-79
2022/04/06 13:12:42;;;;;;;0.50;0.50;;;16.10;99.90;;;;;;5069402;28;20508;-78
2022/04/06 13:15:14;;;;;;;0.50;0.50;;;16.10;99.90;;;;;;5065963;28;20448;-80